sensor_id;sensor_type;location;lat;lon;timestamp;P1;durP1;ratioP1;P2;durP2;ratioP2
15112;SDS011;7657;50.140;7.076;2023-12-20T00:00:21;1.10;;;1.00;;
15112;SDS011;7657;50.140;7.076;2023-12-20T00:02:47;1.03;;;0.90;;
15112;SDS011;7657;50.140;7.076;2023-12-20T00:05:14;0.80;;;0.80;;
15112;SDS011;7657;50.140;7.076;2023-12-20T00:07:41;0.90;;;0.90;;
15112;SDS011;7657;50.140;7.076;2023-12-20T00:10:08;1.10;;;1.00;;
15112;SDS011;7657;50.140;7.076;2023-12-20T00:12:37;1.27;;;1.17;;
15112;SDS011;7657;50.140;7.076;2023-12-20T00:15:07;1.00;;;1.00;;
15112;SDS011;7657;50.140;7.076;2023-12-20T00:17:34;2.30;;;0.90;;
15112;SDS011;7657;50.140;7.076;2023-12-20T00:20:01;1.07;;;1.00;;
15112;SDS011;7657;50.140;7.076;2023-12-20T00:22:28;1.43;;;1.10;;
15112;SDS011;7657;50.140;7.076;2023-12-20T00:24:55;1.10;;;1.10;;
15112;SDS011;7657;50.140;7.076;2023-12-20T00:27:22;1.20;;;1.10;;
15112;SDS011;7657;50.140;7.076;2023-12-20T00:29:49;0.87;;;0.87;;
15112;SDS011;7657;50.140;7.076;2023-12-20T00:32:17;1.07;;;0.93;;
15112;SDS011;7657;50.140;7.076;2023-12-20T00:34:44;1.30;;;1.20;;
15112;SDS011;7657;50.140;7.076;2023-12-20T00:37:11;1.13;;;1.00;;
15112;SDS011;7657;50.140;7.076;2023-12-20T00:39:38;1.30;;;1.20;;
15112;SDS011;7657;50.140;7.076;2023-12-20T00:42:05;1.20;;;1.10;;
15112;SDS011;7657;50.140;7.076;2023-12-20T00:44:32;1.37;;;1.20;;
15112;SDS011;7657;50.140;7.076;2023-12-20T00:46:59;1.10;;;1.07;;
15112;SDS011;7657;50.140;7.076;2023-12-20T00:49:27;1.03;;;1.03;;
15112;SDS011;7657;50.140;7.076;2023-12-20T00:51:54;1.20;;;1.00;;
15112;SDS011;7657;50.140;7.076;2023-12-20T00:54:21;1.10;;;1.00;;
15112;SDS011;7657;50.140;7.076;2023-12-20T00:56:48;1.50;;;1.30;;
15112;SDS011;7657;50.140;7.076;2023-12-20T00:59:16;1.33;;;1.10;;
15112;SDS011;7657;50.140;7.076;2023-12-20T01:01:43;1.50;;;1.30;;
15112;SDS011;7657;50.140;7.076;2023-12-20T01:04:10;1.47;;;1.37;;
15112;SDS011;7657;50.140;7.076;2023-12-20T01:06:38;1.47;;;1.37;;
15112;SDS011;7657;50.140;7.076;2023-12-20T01:09:05;1.57;;;1.47;;
15112;SDS011;7657;50.140;7.076;2023-12-20T01:11:32;1.50;;;1.37;;
15112;SDS011;7657;50.140;7.076;2023-12-20T01:13:58;2.10;;;1.70;;
15112;SDS011;7657;50.140;7.076;2023-12-20T01:16:25;1.50;;;1.40;;
15112;SDS011;7657;50.140;7.076;2023-12-20T01:18:52;2.37;;;1.50;;
15112;SDS011;7657;50.140;7.076;2023-12-20T01:21:19;2.63;;;1.60;;
15112;SDS011;7657;50.140;7.076;2023-12-20T01:23:47;1.73;;;1.63;;
15112;SDS011;7657;50.140;7.076;2023-12-20T01:26:14;2.07;;;1.67;;
15112;SDS011;7657;50.140;7.076;2023-12-20T01:28:41;1.57;;;1.47;;
15112;SDS011;7657;50.140;7.076;2023-12-20T01:31:08;2.77;;;1.77;;
15112;SDS011;7657;50.140;7.076;2023-12-20T01:33:35;1.53;;;1.43;;
15112;SDS011;7657;50.140;7.076;2023-12-20T01:36:02;1.80;;;1.70;;
15112;SDS011;7657;50.140;7.076;2023-12-20T01:38:30;1.60;;;1.50;;
15112;SDS011;7657;50.140;7.076;2023-12-20T01:40:58;1.83;;;1.73;;
15112;SDS011;7657;50.140;7.076;2023-12-20T01:43:25;1.70;;;1.60;;
15112;SDS011;7657;50.140;7.076;2023-12-20T01:45:52;1.90;;;1.80;;
15112;SDS011;7657;50.140;7.076;2023-12-20T01:48:22;2.03;;;1.83;;
15112;SDS011;7657;50.140;7.076;2023-12-20T01:50:50;2.10;;;1.80;;
15112;SDS011;7657;50.140;7.076;2023-12-20T01:53:18;2.10;;;1.90;;
15112;SDS011;7657;50.140;7.076;2023-12-20T01:55:47;2.23;;;2.03;;
15112;SDS011;7657;50.140;7.076;2023-12-20T01:58:19;2.53;;;2.33;;
15112;SDS011;7657;50.140;7.076;2023-12-20T02:00:46;2.40;;;2.17;;
15112;SDS011;7657;50.140;7.076;2023-12-20T02:03:13;2.40;;;2.20;;
15112;SDS011;7657;50.140;7.076;2023-12-20T02:05:40;2.40;;;2.20;;
15112;SDS011;7657;50.140;7.076;2023-12-20T02:08:07;2.40;;;2.20;;
15112;SDS011;7657;50.140;7.076;2023-12-20T02:10:34;2.60;;;2.40;;
15112;SDS011;7657;50.140;7.076;2023-12-20T02:13:01;2.17;;;1.97;;
15112;SDS011;7657;50.140;7.076;2023-12-20T02:15:30;2.37;;;2.17;;
15112;SDS011;7657;50.140;7.076;2023-12-20T02:17:57;2.20;;;2.00;;
15112;SDS011;7657;50.140;7.076;2023-12-20T02:20:25;2.37;;;2.17;;
15112;SDS011;7657;50.140;7.076;2023-12-20T02:22:53;2.37;;;2.17;;
15112;SDS011;7657;50.140;7.076;2023-12-20T02:25:20;2.07;;;1.87;;
15112;SDS011;7657;50.140;7.076;2023-12-20T02:27:47;3.23;;;2.47;;
15112;SDS011;7657;50.140;7.076;2023-12-20T02:30:15;2.13;;;1.97;;
15112;SDS011;7657;50.140;7.076;2023-12-20T02:32:43;3.00;;;2.70;;
15112;SDS011;7657;50.140;7.076;2023-12-20T02:35:09;2.17;;;2.03;;
15112;SDS011;7657;50.140;7.076;2023-12-20T02:37:36;2.43;;;2.20;;
15112;SDS011;7657;50.140;7.076;2023-12-20T02:40:06;3.13;;;2.20;;
15112;SDS011;7657;50.140;7.076;2023-12-20T02:42:33;2.30;;;2.10;;
15112;SDS011;7657;50.140;7.076;2023-12-20T02:45:00;3.43;;;2.20;;
15112;SDS011;7657;50.140;7.076;2023-12-20T02:47:27;2.43;;;2.23;;
15112;SDS011;7657;50.140;7.076;2023-12-20T02:49:54;2.47;;;2.20;;
15112;SDS011;7657;50.140;7.076;2023-12-20T02:52:22;2.57;;;2.37;;
15112;SDS011;7657;50.140;7.076;2023-12-20T02:54:49;2.50;;;2.30;;
15112;SDS011;7657;50.140;7.076;2023-12-20T02:57:17;2.17;;;2.07;;
15112;SDS011;7657;50.140;7.076;2023-12-20T02:59:44;2.40;;;2.20;;
15112;SDS011;7657;50.140;7.076;2023-12-20T03:02:11;2.47;;;2.27;;
15112;SDS011;7657;50.140;7.076;2023-12-20T03:04:38;2.00;;;1.90;;
15112;SDS011;7657;50.140;7.076;2023-12-20T03:07:05;2.10;;;1.90;;
15112;SDS011;7657;50.140;7.076;2023-12-20T03:09:32;2.27;;;1.53;;
15112;SDS011;7657;50.140;7.076;2023-12-20T03:11:58;3.73;;;1.60;;
15112;SDS011;7657;50.140;7.076;2023-12-20T03:14:27;2.53;;;1.67;;
15112;SDS011;7657;50.140;7.076;2023-12-20T03:16:54;3.70;;;1.37;;
15112;SDS011;7657;50.140;7.076;2023-12-20T03:19:21;2.77;;;1.37;;
15112;SDS011;7657;50.140;7.076;2023-12-20T03:21:48;3.90;;;1.27;;
15112;SDS011;7657;50.140;7.076;2023-12-20T03:24:15;2.60;;;1.40;;
15112;SDS011;7657;50.140;7.076;2023-12-20T03:26:42;4.20;;;1.30;;
15112;SDS011;7657;50.140;7.076;2023-12-20T03:29:09;4.13;;;1.30;;
15112;SDS011;7657;50.140;7.076;2023-12-20T03:31:37;3.13;;;1.57;;
15112;SDS011;7657;50.140;7.076;2023-12-20T03:34:04;2.60;;;1.30;;
15112;SDS011;7657;50.140;7.076;2023-12-20T03:36:30;5.47;;;1.63;;
15112;SDS011;7657;50.140;7.076;2023-12-20T03:38:58;3.20;;;1.40;;
15112;SDS011;7657;50.140;7.076;2023-12-20T03:41:24;1.60;;;1.27;;
15112;SDS011;7657;50.140;7.076;2023-12-20T03:43:51;2.77;;;1.30;;
15112;SDS011;7657;50.140;7.076;2023-12-20T03:46:18;3.53;;;0.93;;
15112;SDS011;7657;50.140;7.076;2023-12-20T03:48:47;2.80;;;1.13;;
15112;SDS011;7657;50.140;7.076;2023-12-20T03:51:13;4.00;;;1.23;;
15112;SDS011;7657;50.140;7.076;2023-12-20T03:53:40;2.07;;;1.30;;
15112;SDS011;7657;50.140;7.076;2023-12-20T03:56:07;3.67;;;1.20;;
15112;SDS011;7657;50.140;7.076;2023-12-20T03:58:34;5.50;;;1.27;;
15112;SDS011;7657;50.140;7.076;2023-12-20T04:01:01;3.90;;;1.27;;
15112;SDS011;7657;50.140;7.076;2023-12-20T04:03:28;2.73;;;1.20;;
15112;SDS011;7657;50.140;7.076;2023-12-20T04:05:56;5.40;;;1.57;;
15112;SDS011;7657;50.140;7.076;2023-12-20T04:08:23;4.83;;;1.40;;
15112;SDS011;7657;50.140;7.076;2023-12-20T04:10:51;3.60;;;1.43;;
15112;SDS011;7657;50.140;7.076;2023-12-20T04:13:17;4.50;;;1.23;;
15112;SDS011;7657;50.140;7.076;2023-12-20T04:15:44;3.37;;;1.10;;
15112;SDS011;7657;50.140;7.076;2023-12-20T04:18:11;3.80;;;2.00;;
15112;SDS011;7657;50.140;7.076;2023-12-20T04:20:38;3.40;;;1.10;;
15112;SDS011;7657;50.140;7.076;2023-12-20T04:23:07;3.43;;;1.23;;
15112;SDS011;7657;50.140;7.076;2023-12-20T04:25:33;5.33;;;2.00;;
15112;SDS011;7657;50.140;7.076;2023-12-20T04:28:01;3.67;;;1.30;;
15112;SDS011;7657;50.140;7.076;2023-12-20T04:30:28;4.37;;;1.50;;
15112;SDS011;7657;50.140;7.076;2023-12-20T04:32:54;2.80;;;1.37;;
15112;SDS011;7657;50.140;7.076;2023-12-20T04:35:22;3.83;;;1.37;;
15112;SDS011;7657;50.140;7.076;2023-12-20T04:37:49;3.93;;;1.33;;
15112;SDS011;7657;50.140;7.076;2023-12-20T04:40:17;2.40;;;1.10;;
15112;SDS011;7657;50.140;7.076;2023-12-20T04:42:44;3.07;;;1.10;;
15112;SDS011;7657;50.140;7.076;2023-12-20T04:45:11;2.83;;;1.10;;
15112;SDS011;7657;50.140;7.076;2023-12-20T04:47:41;3.73;;;1.00;;
15112;SDS011;7657;50.140;7.076;2023-12-20T04:50:08;2.93;;;1.00;;
15112;SDS011;7657;50.140;7.076;2023-12-20T04:52:36;3.03;;;1.40;;
15112;SDS011;7657;50.140;7.076;2023-12-20T04:55:03;3.70;;;1.20;;
15112;SDS011;7657;50.140;7.076;2023-12-20T04:57:32;5.70;;;1.37;;
15112;SDS011;7657;50.140;7.076;2023-12-20T04:59:59;4.57;;;2.33;;
15112;SDS011;7657;50.140;7.076;2023-12-20T05:02:25;6.67;;;1.43;;
15112;SDS011;7657;50.140;7.076;2023-12-20T05:04:52;3.30;;;1.30;;
15112;SDS011;7657;50.140;7.076;2023-12-20T05:07:19;4.07;;;1.40;;
15112;SDS011;7657;50.140;7.076;2023-12-20T05:09:46;2.80;;;1.30;;
15112;SDS011;7657;50.140;7.076;2023-12-20T05:12:13;4.00;;;1.37;;
15112;SDS011;7657;50.140;7.076;2023-12-20T05:14:42;4.83;;;1.57;;
15112;SDS011;7657;50.140;7.076;2023-12-20T05:17:09;3.40;;;1.67;;
15112;SDS011;7657;50.140;7.076;2023-12-20T05:19:35;4.23;;;1.50;;
15112;SDS011;7657;50.140;7.076;2023-12-20T05:22:02;5.30;;;1.40;;
15112;SDS011;7657;50.140;7.076;2023-12-20T05:24:30;5.67;;;1.40;;
15112;SDS011;7657;50.140;7.076;2023-12-20T05:26:56;4.30;;;2.33;;
15112;SDS011;7657;50.140;7.076;2023-12-20T05:29:23;3.70;;;1.30;;
15112;SDS011;7657;50.140;7.076;2023-12-20T05:31:52;11.17;;;4.93;;
15112;SDS011;7657;50.140;7.076;2023-12-20T05:34:19;6.33;;;1.33;;
15112;SDS011;7657;50.140;7.076;2023-12-20T05:36:46;3.30;;;1.47;;
15112;SDS011;7657;50.140;7.076;2023-12-20T05:39:13;4.80;;;2.03;;
15112;SDS011;7657;50.140;7.076;2023-12-20T05:41:40;4.57;;;1.53;;
15112;SDS011;7657;50.140;7.076;2023-12-20T05:44:07;5.97;;;1.43;;
15112;SDS011;7657;50.140;7.076;2023-12-20T05:46:35;11.70;;;5.70;;
15112;SDS011;7657;50.140;7.076;2023-12-20T05:49:03;3.83;;;1.50;;
15112;SDS011;7657;50.140;7.076;2023-12-20T05:51:30;12.30;;;4.60;;
15112;SDS011;7657;50.140;7.076;2023-12-20T05:53:57;3.50;;;1.60;;
15112;SDS011;7657;50.140;7.076;2023-12-20T05:56:24;2.83;;;1.80;;
15112;SDS011;7657;50.140;7.076;2023-12-20T05:58:51;5.00;;;1.43;;
15112;SDS011;7657;50.140;7.076;2023-12-20T06:01:18;5.07;;;1.87;;
15112;SDS011;7657;50.140;7.076;2023-12-20T06:03:45;7.07;;;1.63;;
15112;SDS011;7657;50.140;7.076;2023-12-20T06:06:13;5.33;;;1.70;;
15112;SDS011;7657;50.140;7.076;2023-12-20T06:08:40;5.20;;;1.80;;
15112;SDS011;7657;50.140;7.076;2023-12-20T06:11:08;6.07;;;1.80;;
15112;SDS011;7657;50.140;7.076;2023-12-20T06:13:35;6.80;;;2.30;;
15112;SDS011;7657;50.140;7.076;2023-12-20T06:16:02;5.63;;;2.07;;
15112;SDS011;7657;50.140;7.076;2023-12-20T06:18:31;6.37;;;2.50;;
15112;SDS011;7657;50.140;7.076;2023-12-20T06:20:58;3.87;;;2.17;;
15112;SDS011;7657;50.140;7.076;2023-12-20T06:23:26;7.13;;;2.13;;
15112;SDS011;7657;50.140;7.076;2023-12-20T06:25:53;24.10;;;11.53;;
15112;SDS011;7657;50.140;7.076;2023-12-20T06:28:20;6.73;;;2.20;;
15112;SDS011;7657;50.140;7.076;2023-12-20T06:30:47;5.53;;;2.47;;
15112;SDS011;7657;50.140;7.076;2023-12-20T06:33:15;5.90;;;2.17;;
15112;SDS011;7657;50.140;7.076;2023-12-20T06:35:43;7.53;;;2.27;;
15112;SDS011;7657;50.140;7.076;2023-12-20T06:38:11;8.03;;;2.87;;
15112;SDS011;7657;50.140;7.076;2023-12-20T06:40:39;5.67;;;1.90;;
15112;SDS011;7657;50.140;7.076;2023-12-20T06:43:07;7.77;;;1.80;;
15112;SDS011;7657;50.140;7.076;2023-12-20T06:45:34;7.23;;;2.30;;
15112;SDS011;7657;50.140;7.076;2023-12-20T06:48:01;5.43;;;2.00;;
15112;SDS011;7657;50.140;7.076;2023-12-20T06:50:28;5.63;;;2.30;;
15112;SDS011;7657;50.140;7.076;2023-12-20T06:52:55;8.33;;;2.47;;
15112;SDS011;7657;50.140;7.076;2023-12-20T06:55:22;10.87;;;3.10;;
15112;SDS011;7657;50.140;7.076;2023-12-20T06:57:51;9.53;;;2.70;;
15112;SDS011;7657;50.140;7.076;2023-12-20T07:00:18;6.60;;;2.63;;
15112;SDS011;7657;50.140;7.076;2023-12-20T07:02:46;7.20;;;3.07;;
15112;SDS011;7657;50.140;7.076;2023-12-20T07:05:15;7.90;;;3.23;;
15112;SDS011;7657;50.140;7.076;2023-12-20T07:07:44;7.67;;;3.63;;
15112;SDS011;7657;50.140;7.076;2023-12-20T07:10:11;7.10;;;3.20;;
15112;SDS011;7657;50.140;7.076;2023-12-20T07:12:39;6.97;;;3.00;;
15112;SDS011;7657;50.140;7.076;2023-12-20T07:15:08;5.27;;;3.30;;
15112;SDS011;7657;50.140;7.076;2023-12-20T07:17:35;8.53;;;2.63;;
15112;SDS011;7657;50.140;7.076;2023-12-20T07:20:02;5.33;;;2.60;;
15112;SDS011;7657;50.140;7.076;2023-12-20T07:22:29;5.77;;;2.90;;
15112;SDS011;7657;50.140;7.076;2023-12-20T07:24:57;8.23;;;3.40;;
15112;SDS011;7657;50.140;7.076;2023-12-20T07:27:24;9.63;;;3.57;;
15112;SDS011;7657;50.140;7.076;2023-12-20T07:29:51;11.00;;;3.30;;
15112;SDS011;7657;50.140;7.076;2023-12-20T07:32:19;7.97;;;3.40;;
15112;SDS011;7657;50.140;7.076;2023-12-20T07:34:46;8.30;;;3.60;;
15112;SDS011;7657;50.140;7.076;2023-12-20T07:37:13;11.47;;;3.83;;
15112;SDS011;7657;50.140;7.076;2023-12-20T07:39:40;10.83;;;3.70;;
15112;SDS011;7657;50.140;7.076;2023-12-20T07:42:07;6.63;;;3.50;;
15112;SDS011;7657;50.140;7.076;2023-12-20T07:44:35;7.07;;;3.77;;
15112;SDS011;7657;50.140;7.076;2023-12-20T07:47:02;5.73;;;3.27;;
15112;SDS011;7657;50.140;7.076;2023-12-20T07:49:31;8.67;;;3.50;;
15112;SDS011;7657;50.140;7.076;2023-12-20T07:51:58;8.17;;;3.70;;
15112;SDS011;7657;50.140;7.076;2023-12-20T07:54:25;7.57;;;3.40;;
15112;SDS011;7657;50.140;7.076;2023-12-20T07:56:52;9.53;;;3.93;;
15112;SDS011;7657;50.140;7.076;2023-12-20T07:59:19;7.20;;;3.40;;
15112;SDS011;7657;50.140;7.076;2023-12-20T08:01:45;8.30;;;3.40;;
15112;SDS011;7657;50.140;7.076;2023-12-20T08:04:12;13.17;;;3.90;;
15112;SDS011;7657;50.140;7.076;2023-12-20T08:06:40;9.43;;;3.70;;
15112;SDS011;7657;50.140;7.076;2023-12-20T08:09:07;6.33;;;3.47;;
15112;SDS011;7657;50.140;7.076;2023-12-20T08:11:35;9.57;;;3.27;;
15112;SDS011;7657;50.140;7.076;2023-12-20T08:14:02;9.93;;;3.30;;
15112;SDS011;7657;50.140;7.076;2023-12-20T08:16:29;6.40;;;3.07;;
15112;SDS011;7657;50.140;7.076;2023-12-20T08:18:56;7.63;;;3.27;;
15112;SDS011;7657;50.140;7.076;2023-12-20T08:21:23;8.77;;;3.03;;
15112;SDS011;7657;50.140;7.076;2023-12-20T08:23:51;9.20;;;3.60;;
15112;SDS011;7657;50.140;7.076;2023-12-20T08:26:18;10.07;;;3.80;;
15112;SDS011;7657;50.140;7.076;2023-12-20T08:28:47;19.03;;;10.27;;
15112;SDS011;7657;50.140;7.076;2023-12-20T08:31:14;25.90;;;13.97;;
15112;SDS011;7657;50.140;7.076;2023-12-20T08:33:42;34.37;;;19.07;;
15112;SDS011;7657;50.140;7.076;2023-12-20T08:36:10;9.00;;;4.30;;
15112;SDS011;7657;50.140;7.076;2023-12-20T08:38:37;15.53;;;9.23;;
15112;SDS011;7657;50.140;7.076;2023-12-20T08:41:06;7.70;;;3.20;;
15112;SDS011;7657;50.140;7.076;2023-12-20T08:43:33;8.73;;;4.03;;
15112;SDS011;7657;50.140;7.076;2023-12-20T08:46:01;10.43;;;3.57;;
15112;SDS011;7657;50.140;7.076;2023-12-20T08:48:28;10.07;;;7.10;;
15112;SDS011;7657;50.140;7.076;2023-12-20T08:50:55;14.73;;;9.23;;
15112;SDS011;7657;50.140;7.076;2023-12-20T08:53:22;7.23;;;3.30;;
15112;SDS011;7657;50.140;7.076;2023-12-20T08:55:50;7.70;;;3.03;;
15112;SDS011;7657;50.140;7.076;2023-12-20T08:58:19;9.30;;;3.43;;
15112;SDS011;7657;50.140;7.076;2023-12-20T09:00:46;6.03;;;3.20;;
15112;SDS011;7657;50.140;7.076;2023-12-20T09:03:13;8.30;;;3.00;;
15112;SDS011;7657;50.140;7.076;2023-12-20T09:05:40;8.67;;;3.80;;
15112;SDS011;7657;50.140;7.076;2023-12-20T09:08:07;9.57;;;3.33;;
15112;SDS011;7657;50.140;7.076;2023-12-20T09:10:35;8.17;;;3.30;;
15112;SDS011;7657;50.140;7.076;2023-12-20T09:13:03;7.97;;;3.40;;
15112;SDS011;7657;50.140;7.076;2023-12-20T09:15:31;11.70;;;3.20;;
15112;SDS011;7657;50.140;7.076;2023-12-20T09:17:59;7.57;;;3.07;;
15112;SDS011;7657;50.140;7.076;2023-12-20T09:20:26;9.73;;;3.70;;
15112;SDS011;7657;50.140;7.076;2023-12-20T09:22:53;8.90;;;4.23;;
15112;SDS011;7657;50.140;7.076;2023-12-20T09:25:20;7.27;;;2.90;;
15112;SDS011;7657;50.140;7.076;2023-12-20T09:27:48;8.47;;;2.77;;
15112;SDS011;7657;50.140;7.076;2023-12-20T09:30:15;7.87;;;2.80;;
15112;SDS011;7657;50.140;7.076;2023-12-20T09:32:43;8.07;;;2.60;;
15112;SDS011;7657;50.140;7.076;2023-12-20T09:35:11;4.17;;;2.30;;
15112;SDS011;7657;50.140;7.076;2023-12-20T09:37:38;7.40;;;2.77;;
15112;SDS011;7657;50.140;7.076;2023-12-20T09:40:06;5.50;;;2.33;;
15112;SDS011;7657;50.140;7.076;2023-12-20T09:42:37;6.63;;;2.83;;
15112;SDS011;7657;50.140;7.076;2023-12-20T09:45:13;9.37;;;3.03;;
15112;SDS011;7657;50.140;7.076;2023-12-20T09:47:42;11.77;;;3.87;;
15112;SDS011;7657;50.140;7.076;2023-12-20T09:50:11;4.43;;;3.20;;
15112;SDS011;7657;50.140;7.076;2023-12-20T09:52:39;6.53;;;2.27;;
15112;SDS011;7657;50.140;7.076;2023-12-20T09:55:07;5.93;;;2.07;;
15112;SDS011;7657;50.140;7.076;2023-12-20T09:57:34;6.87;;;2.27;;
15112;SDS011;7657;50.140;7.076;2023-12-20T10:00:02;8.70;;;2.40;;
15112;SDS011;7657;50.140;7.076;2023-12-20T10:02:29;6.90;;;2.50;;
15112;SDS011;7657;50.140;7.076;2023-12-20T10:05:00;8.00;;;3.10;;
15112;SDS011;7657;50.140;7.076;2023-12-20T10:07:28;5.27;;;2.60;;
15112;SDS011;7657;50.140;7.076;2023-12-20T10:09:55;6.90;;;2.73;;
15112;SDS011;7657;50.140;7.076;2023-12-20T10:12:22;6.17;;;3.17;;
15112;SDS011;7657;50.140;7.076;2023-12-20T10:14:49;5.93;;;2.10;;
15112;SDS011;7657;50.140;7.076;2023-12-20T10:17:17;8.07;;;3.07;;
15112;SDS011;7657;50.140;7.076;2023-12-20T10:19:43;8.23;;;2.93;;
15112;SDS011;7657;50.140;7.076;2023-12-20T10:22:12;5.67;;;2.20;;
15112;SDS011;7657;50.140;7.076;2023-12-20T10:24:39;8.03;;;2.53;;
15112;SDS011;7657;50.140;7.076;2023-12-20T10:27:08;5.67;;;2.50;;
15112;SDS011;7657;50.140;7.076;2023-12-20T10:29:35;5.67;;;2.53;;
15112;SDS011;7657;50.140;7.076;2023-12-20T10:32:22;9.97;;;3.33;;
15112;SDS011;7657;50.140;7.076;2023-12-20T10:34:50;8.63;;;2.23;;
15112;SDS011;7657;50.140;7.076;2023-12-20T10:37:18;11.40;;;3.00;;
15112;SDS011;7657;50.140;7.076;2023-12-20T10:39:46;7.17;;;2.50;;
15112;SDS011;7657;50.140;7.076;2023-12-20T10:42:17;7.67;;;2.50;;
15112;SDS011;7657;50.140;7.076;2023-12-20T10:44:46;7.00;;;3.00;;
15112;SDS011;7657;50.140;7.076;2023-12-20T10:47:13;5.20;;;2.40;;
15112;SDS011;7657;50.140;7.076;2023-12-20T10:49:40;10.40;;;3.73;;
15112;SDS011;7657;50.140;7.076;2023-12-20T10:52:08;7.13;;;2.70;;
15112;SDS011;7657;50.140;7.076;2023-12-20T10:54:38;6.73;;;2.77;;
15112;SDS011;7657;50.140;7.076;2023-12-20T10:57:06;5.23;;;2.70;;
15112;SDS011;7657;50.140;7.076;2023-12-20T10:59:33;6.70;;;2.67;;
15112;SDS011;7657;50.140;7.076;2023-12-20T11:02:03;9.03;;;2.60;;
15112;SDS011;7657;50.140;7.076;2023-12-20T11:04:34;6.13;;;2.50;;
15112;SDS011;7657;50.140;7.076;2023-12-20T11:07:08;8.37;;;2.43;;
15112;SDS011;7657;50.140;7.076;2023-12-20T11:09:45;6.80;;;2.80;;
15112;SDS011;7657;50.140;7.076;2023-12-20T11:12:21;5.57;;;2.70;;
15112;SDS011;7657;50.140;7.076;2023-12-20T11:14:58;8.53;;;3.20;;
15112;SDS011;7657;50.140;7.076;2023-12-20T11:17:29;15.13;;;8.37;;
15112;SDS011;7657;50.140;7.076;2023-12-20T11:20:04;20.43;;;10.97;;
15112;SDS011;7657;50.140;7.076;2023-12-20T11:22:35;6.97;;;3.23;;
15112;SDS011;7657;50.140;7.076;2023-12-20T11:25:05;28.40;;;17.03;;
15112;SDS011;7657;50.140;7.076;2023-12-20T11:27:34;6.53;;;3.20;;
15112;SDS011;7657;50.140;7.076;2023-12-20T11:30:03;9.47;;;3.30;;
15112;SDS011;7657;50.140;7.076;2023-12-20T11:32:33;8.40;;;3.67;;
15112;SDS011;7657;50.140;7.076;2023-12-20T11:35:01;8.10;;;3.00;;
15112;SDS011;7657;50.140;7.076;2023-12-20T11:37:43;21.10;;;12.43;;
15112;SDS011;7657;50.140;7.076;2023-12-20T11:40:14;7.33;;;3.07;;
15112;SDS011;7657;50.140;7.076;2023-12-20T11:42:43;5.47;;;3.37;;
15112;SDS011;7657;50.140;7.076;2023-12-20T11:45:12;12.87;;;7.00;;
15112;SDS011;7657;50.140;7.076;2023-12-20T11:47:41;8.67;;;3.50;;
15112;SDS011;7657;50.140;7.076;2023-12-20T11:50:10;9.10;;;4.97;;
15112;SDS011;7657;50.140;7.076;2023-12-20T11:52:37;12.57;;;3.67;;
15112;SDS011;7657;50.140;7.076;2023-12-20T11:55:04;7.97;;;3.40;;
15112;SDS011;7657;50.140;7.076;2023-12-20T11:57:33;11.20;;;4.80;;
15112;SDS011;7657;50.140;7.076;2023-12-20T12:00:01;6.40;;;3.00;;
15112;SDS011;7657;50.140;7.076;2023-12-20T12:02:29;10.90;;;3.97;;
15112;SDS011;7657;50.140;7.076;2023-12-20T12:04:56;11.33;;;7.10;;
15112;SDS011;7657;50.140;7.076;2023-12-20T12:07:24;8.63;;;3.20;;
15112;SDS011;7657;50.140;7.076;2023-12-20T12:09:51;7.80;;;4.17;;
15112;SDS011;7657;50.140;7.076;2023-12-20T12:12:18;8.03;;;3.10;;
15112;SDS011;7657;50.140;7.076;2023-12-20T12:14:47;9.20;;;3.77;;
15112;SDS011;7657;50.140;7.076;2023-12-20T12:17:15;6.33;;;3.43;;
15112;SDS011;7657;50.140;7.076;2023-12-20T12:19:43;7.17;;;2.97;;
15112;SDS011;7657;50.140;7.076;2023-12-20T12:22:12;5.97;;;3.00;;
15112;SDS011;7657;50.140;7.076;2023-12-20T12:24:40;8.90;;;3.07;;
15112;SDS011;7657;50.140;7.076;2023-12-20T12:27:08;8.90;;;2.80;;
15112;SDS011;7657;50.140;7.076;2023-12-20T12:29:36;6.30;;;3.07;;
15112;SDS011;7657;50.140;7.076;2023-12-20T12:32:05;12.70;;;6.93;;
15112;SDS011;7657;50.140;7.076;2023-12-20T12:34:33;10.50;;;7.77;;
15112;SDS011;7657;50.140;7.076;2023-12-20T12:37:00;11.03;;;5.53;;
15112;SDS011;7657;50.140;7.076;2023-12-20T12:39:27;9.90;;;4.07;;
15112;SDS011;7657;50.140;7.076;2023-12-20T12:41:56;9.87;;;3.03;;
15112;SDS011;7657;50.140;7.076;2023-12-20T12:44:23;8.17;;;2.97;;
15112;SDS011;7657;50.140;7.076;2023-12-20T12:46:50;11.73;;;5.43;;
15112;SDS011;7657;50.140;7.076;2023-12-20T12:49:20;8.10;;;3.60;;
15112;SDS011;7657;50.140;7.076;2023-12-20T12:51:47;10.60;;;3.60;;
15112;SDS011;7657;50.140;7.076;2023-12-20T12:54:14;7.47;;;3.30;;
15112;SDS011;7657;50.140;7.076;2023-12-20T12:56:41;11.27;;;4.37;;
15112;SDS011;7657;50.140;7.076;2023-12-20T12:59:09;8.30;;;3.50;;
15112;SDS011;7657;50.140;7.076;2023-12-20T13:01:36;8.93;;;4.83;;
15112;SDS011;7657;50.140;7.076;2023-12-20T13:04:03;9.17;;;2.90;;
15112;SDS011;7657;50.140;7.076;2023-12-20T13:06:36;11.53;;;4.50;;
15112;SDS011;7657;50.140;7.076;2023-12-20T13:09:03;13.57;;;6.03;;
15112;SDS011;7657;50.140;7.076;2023-12-20T13:11:30;13.50;;;6.60;;
15112;SDS011;7657;50.140;7.076;2023-12-20T13:13:58;15.33;;;8.17;;
15112;SDS011;7657;50.140;7.076;2023-12-20T13:16:24;17.50;;;9.33;;
15112;SDS011;7657;50.140;7.076;2023-12-20T13:18:51;8.67;;;2.80;;
15112;SDS011;7657;50.140;7.076;2023-12-20T13:21:18;8.27;;;2.50;;
15112;SDS011;7657;50.140;7.076;2023-12-20T13:23:47;6.10;;;2.27;;
15112;SDS011;7657;50.140;7.076;2023-12-20T13:26:14;5.00;;;2.67;;
15112;SDS011;7657;50.140;7.076;2023-12-20T13:28:41;7.77;;;2.97;;
15112;SDS011;7657;50.140;7.076;2023-12-20T13:31:08;13.00;;;8.90;;
15112;SDS011;7657;50.140;7.076;2023-12-20T13:33:34;14.43;;;7.13;;
15112;SDS011;7657;50.140;7.076;2023-12-20T13:36:02;13.50;;;5.77;;
15112;SDS011;7657;50.140;7.076;2023-12-20T13:38:30;7.03;;;3.47;;
15112;SDS011;7657;50.140;7.076;2023-12-20T13:40:58;21.17;;;12.17;;
15112;SDS011;7657;50.140;7.076;2023-12-20T13:43:25;11.63;;;7.27;;
15112;SDS011;7657;50.140;7.076;2023-12-20T13:45:52;23.57;;;14.57;;
15112;SDS011;7657;50.140;7.076;2023-12-20T13:48:19;20.47;;;11.17;;
15112;SDS011;7657;50.140;7.076;2023-12-20T13:50:46;9.83;;;2.73;;
15112;SDS011;7657;50.140;7.076;2023-12-20T13:53:13;8.47;;;3.03;;
15112;SDS011;7657;50.140;7.076;2023-12-20T13:55:40;10.00;;;3.50;;
15112;SDS011;7657;50.140;7.076;2023-12-20T13:58:08;5.40;;;2.20;;
15112;SDS011;7657;50.140;7.076;2023-12-20T14:00:36;8.77;;;2.57;;
15112;SDS011;7657;50.140;7.076;2023-12-20T14:03:03;12.07;;;2.70;;
15112;SDS011;7657;50.140;7.076;2023-12-20T14:05:30;8.80;;;2.20;;
15112;SDS011;7657;50.140;7.076;2023-12-20T14:07:58;6.63;;;2.30;;
15112;SDS011;7657;50.140;7.076;2023-12-20T14:10:25;5.77;;;2.43;;
15112;SDS011;7657;50.140;7.076;2023-12-20T14:12:53;6.10;;;2.10;;
15112;SDS011;7657;50.140;7.076;2023-12-20T14:15:21;4.13;;;2.50;;
15112;SDS011;7657;50.140;7.076;2023-12-20T14:17:50;10.30;;;2.43;;
15112;SDS011;7657;50.140;7.076;2023-12-20T14:20:18;5.80;;;2.23;;
15112;SDS011;7657;50.140;7.076;2023-12-20T14:22:45;7.73;;;2.30;;
15112;SDS011;7657;50.140;7.076;2023-12-20T14:25:12;4.87;;;1.97;;
15112;SDS011;7657;50.140;7.076;2023-12-20T14:27:40;5.37;;;3.80;;
15112;SDS011;7657;50.140;7.076;2023-12-20T14:30:08;6.40;;;2.80;;
15112;SDS011;7657;50.140;7.076;2023-12-20T14:32:40;9.43;;;4.00;;
15112;SDS011;7657;50.140;7.076;2023-12-20T14:35:07;8.47;;;3.37;;
15112;SDS011;7657;50.140;7.076;2023-12-20T14:37:34;4.27;;;1.80;;
15112;SDS011;7657;50.140;7.076;2023-12-20T14:40:04;5.40;;;2.37;;
15112;SDS011;7657;50.140;7.076;2023-12-20T14:42:31;8.40;;;1.70;;
15112;SDS011;7657;50.140;7.076;2023-12-20T14:44:58;5.73;;;1.57;;
15112;SDS011;7657;50.140;7.076;2023-12-20T14:47:25;6.80;;;1.93;;
15112;SDS011;7657;50.140;7.076;2023-12-20T14:49:54;8.80;;;2.43;;
15112;SDS011;7657;50.140;7.076;2023-12-20T14:52:21;7.13;;;2.43;;
15112;SDS011;7657;50.140;7.076;2023-12-20T14:54:48;5.97;;;2.00;;
15112;SDS011;7657;50.140;7.076;2023-12-20T14:57:15;7.87;;;2.20;;
15112;SDS011;7657;50.140;7.076;2023-12-20T14:59:43;6.43;;;2.00;;
15112;SDS011;7657;50.140;7.076;2023-12-20T15:02:09;5.03;;;2.00;;